sensor_id;sensor_type;location;lat;lon;timestamp;temperature;humidity
2543;DHT22;1116;51.502;7.414;2022-07-22T00:03:26;17.10;99.90
2543;DHT22;1116;51.502;7.414;2022-07-22T00:08:13;16.80;99.90
2543;DHT22;1116;51.502;7.414;2022-07-22T00:11:35;16.60;99.90
2543;DHT22;1116;51.502;7.414;2022-07-22T00:14:27;16.70;99.90
2543;DHT22;1116;51.502;7.414;2022-07-22T00:17:25;16.60;99.90
2543;DHT22;1116;51.502;7.414;2022-07-22T00:20:13;16.80;99.90
2543;DHT22;1116;51.502;7.414;2022-07-22T00:23:06;16.60;99.90
2543;DHT22;1116;51.502;7.414;2022-07-22T00:25:53;16.60;99.90
2543;DHT22;1116;51.502;7.414;2022-07-22T00:28:25;16.70;99.90
2543;DHT22;1116;51.502;7.414;2022-07-22T00:30:55;16.70;99.90
2543;DHT22;1116;51.502;7.414;2022-07-22T00:33:25;16.50;99.90
2543;DHT22;1116;51.502;7.414;2022-07-22T00:36:09;16.30;99.90
2543;DHT22;1116;51.502;7.414;2022-07-22T00:38:51;16.40;99.90
2543;DHT22;1116;51.502;7.414;2022-07-22T00:41:30;16.70;99.90
2543;DHT22;1116;51.502;7.414;2022-07-22T00:44:06;16.40;99.90
2543;DHT22;1116;51.502;7.414;2022-07-22T00:46:59;16.60;99.90
2543;DHT22;1116;51.502;7.414;2022-07-22T00:49:42;16.50;99.90
2543;DHT22;1116;51.502;7.414;2022-07-22T00:52:28;16.70;99.90
2543;DHT22;1116;51.502;7.414;2022-07-22T00:55:05;16.40;99.90
2543;DHT22;1116;51.502;7.414;2022-07-22T00:57:38;16.60;99.90
2543;DHT22;1116;51.502;7.414;2022-07-22T01:00:20;16.30;99.90
2543;DHT22;1116;51.502;7.414;2022-07-22T01:02:50;16.60;99.90
2543;DHT22;1116;51.502;7.414;2022-07-22T01:05:33;16.50;99.90
2543;DHT22;1116;51.502;7.414;2022-07-22T01:08:14;16.80;99.90
2543;DHT22;1116;51.502;7.414;2022-07-22T01:11:06;16.20;99.90
2543;DHT22;1116;51.502;7.414;2022-07-22T01:13:48;16.30;99.90
2543;DHT22;1116;51.502;7.414;2022-07-22T01:16:23;16.30;99.90
2543;DHT22;1116;51.502;7.414;2022-07-22T01:19:05;16.20;99.90
2543;DHT22;1116;51.502;7.414;2022-07-22T01:21:48;16.30;99.90
2543;DHT22;1116;51.502;7.414;2022-07-22T01:24:22;16.20;99.90
2543;DHT22;1116;51.502;7.414;2022-07-22T01:26:56;16.30;99.90
2543;DHT22;1116;51.502;7.414;2022-07-22T01:29:26;16.40;99.90
2543;DHT22;1116;51.502;7.414;2022-07-22T01:32:00;16.50;99.90
2543;DHT22;1116;51.502;7.414;2022-07-22T01:34:54;16.60;99.90
2543;DHT22;1116;51.502;7.414;2022-07-22T01:37:39;16.40;99.90
2543;DHT22;1116;51.502;7.414;2022-07-22T01:40:38;16.40;99.90
2543;DHT22;1116;51.502;7.414;2022-07-22T01:43:33;16.30;99.90
2543;DHT22;1116;51.502;7.414;2022-07-22T01:46:09;16.40;99.90
2543;DHT22;1116;51.502;7.414;2022-07-22T01:48:52;16.30;99.90
2543;DHT22;1116;51.502;7.414;2022-07-22T01:51:52;16.30;99.90
2543;DHT22;1116;51.502;7.414;2022-07-22T01:54:38;16.20;99.90
2543;DHT22;1116;51.502;7.414;2022-07-22T01:57:09;16.70;99.90
2543;DHT22;1116;51.502;7.414;2022-07-22T01:59:45;16.70;99.90
2543;DHT22;1116;51.502;7.414;2022-07-22T02:02:15;16.70;99.90
2543;DHT22;1116;51.502;7.414;2022-07-22T02:04:44;16.60;99.90
2543;DHT22;1116;51.502;7.414;2022-07-22T02:07:14;16.90;99.90
2543;DHT22;1116;51.502;7.414;2022-07-22T02:09:44;16.80;99.90
2543;DHT22;1116;51.502;7.414;2022-07-22T02:12:17;17.00;99.90
2543;DHT22;1116;51.502;7.414;2022-07-22T02:14:56;17.00;99.90
2543;DHT22;1116;51.502;7.414;2022-07-22T02:17:32;17.00;99.90
2543;DHT22;1116;51.502;7.414;2022-07-22T02:20:11;16.70;99.90
2543;DHT22;1116;51.502;7.414;2022-07-22T02:23:11;16.60;99.90
2543;DHT22;1116;51.502;7.414;2022-07-22T02:26:11;16.90;99.90
2543;DHT22;1116;51.502;7.414;2022-07-22T02:28:46;16.60;99.90
2543;DHT22;1116;51.502;7.414;2022-07-22T02:31:19;16.50;99.90
2543;DHT22;1116;51.502;7.414;2022-07-22T02:33:56;16.50;99.90
2543;DHT22;1116;51.502;7.414;2022-07-22T02:36:33;16.80;99.90
2543;DHT22;1116;51.502;7.414;2022-07-22T02:39:16;16.90;99.90
2543;DHT22;1116;51.502;7.414;2022-07-22T02:41:57;17.10;99.90
2543;DHT22;1116;51.502;7.414;2022-07-22T02:44:44;17.20;99.90
2543;DHT22;1116;51.502;7.414;2022-07-22T02:47:22;17.10;99.90
2543;DHT22;1116;51.502;7.414;2022-07-22T02:49:55;16.90;99.90
2543;DHT22;1116;51.502;7.414;2022-07-22T02:52:34;16.90;99.90
2543;DHT22;1116;51.502;7.414;2022-07-22T02:55:07;17.00;99.90
2543;DHT22;1116;51.502;7.414;2022-07-22T02:57:42;17.10;99.90
2543;DHT22;1116;51.502;7.414;2022-07-22T03:00:13;17.00;99.90
2543;DHT22;1116;51.502;7.414;2022-07-22T03:02:43;17.10;99.90
2543;DHT22;1116;51.502;7.414;2022-07-22T03:05:29;17.20;99.90
2543;DHT22;1116;51.502;7.414;2022-07-22T03:08:21;17.10;99.90
2543;DHT22;1116;51.502;7.414;2022-07-22T03:11:10;17.00;99.90
2543;DHT22;1116;51.502;7.414;2022-07-22T03:14:31;16.90;99.90
2543;DHT22;1116;51.502;7.414;2022-07-22T03:18:06;17.10;99.90
2543;DHT22;1116;51.502;7.414;2022-07-22T03:21:06;16.60;99.90
2543;DHT22;1116;51.502;7.414;2022-07-22T03:23:59;16.60;99.90
2543;DHT22;1116;51.502;7.414;2022-07-22T03:27:18;16.60;99.90
2543;DHT22;1116;51.502;7.414;2022-07-22T03:30:16;16.60;99.90
2543;DHT22;1116;51.502;7.414;2022-07-22T03:32:53;16.40;99.90
2543;DHT22;1116;51.502;7.414;2022-07-22T03:35:29;16.50;99.90
2543;DHT22;1116;51.502;7.414;2022-07-22T03:38:11;16.30;99.90
2543;DHT22;1116;51.502;7.414;2022-07-22T03:41:09;16.40;99.90
2543;DHT22;1116;51.502;7.414;2022-07-22T03:44:01;16.60;99.90
2543;DHT22;1116;51.502;7.414;2022-07-22T03:47:00;16.90;99.90
2543;DHT22;1116;51.502;7.414;2022-07-22T03:49:54;16.40;99.90
2543;DHT22;1116;51.502;7.414;2022-07-22T03:52:27;16.80;99.90
2543;DHT22;1116;51.502;7.414;2022-07-22T03:55:09;16.60;99.90
2543;DHT22;1116;51.502;7.414;2022-07-22T03:57:59;16.70;99.90
2543;DHT22;1116;51.502;7.414;2022-07-22T04:00:45;16.90;99.90
2543;DHT22;1116;51.502;7.414;2022-07-22T04:03:21;16.80;99.90
2543;DHT22;1116;51.502;7.414;2022-07-22T04:06:06;17.00;99.90
2543;DHT22;1116;51.502;7.414;2022-07-22T04:08:42;16.90;99.90
2543;DHT22;1116;51.502;7.414;2022-07-22T04:11:22;17.00;99.90
2543;DHT22;1116;51.502;7.414;2022-07-22T04:13:59;17.00;99.90
2543;DHT22;1116;51.502;7.414;2022-07-22T04:17:03;17.10;99.90
2543;DHT22;1116;51.502;7.414;2022-07-22T04:19:48;17.30;99.90
2543;DHT22;1116;51.502;7.414;2022-07-22T04:22:24;16.50;99.90
2543;DHT22;1116;51.502;7.414;2022-07-22T04:25:02;16.90;99.90
2543;DHT22;1116;51.502;7.414;2022-07-22T04:27:54;16.60;99.90
2543;DHT22;1116;51.502;7.414;2022-07-22T04:30:45;16.60;99.90
2543;DHT22;1116;51.502;7.414;2022-07-22T04:33:17;17.00;99.90
2543;DHT22;1116;51.502;7.414;2022-07-22T04:36:01;17.30;99.90
2543;DHT22;1116;51.502;7.414;2022-07-22T04:38:36;16.70;99.90
2543;DHT22;1116;51.502;7.414;2022-07-22T04:41:20;17.00;99.90
2543;DHT22;1116;51.502;7.414;2022-07-22T04:43:53;16.90;99.90
2543;DHT22;1116;51.502;7.414;2022-07-22T04:50:37;16.90;99.90
2543;DHT22;1116;51.502;7.414;2022-07-22T04:53:13;17.00;99.90
2543;DHT22;1116;51.502;7.414;2022-07-22T04:56:17;17.20;99.90
2543;DHT22;1116;51.502;7.414;2022-07-22T04:58:55;16.80;99.90
2543;DHT22;1116;51.502;7.414;2022-07-22T05:01:51;16.60;99.90
2543;DHT22;1116;51.502;7.414;2022-07-22T05:04:45;16.50;99.90
2543;DHT22;1116;51.502;7.414;2022-07-22T05:07:35;16.10;99.90
2543;DHT22;1116;51.502;7.414;2022-07-22T05:10:15;16.60;99.90
2543;DHT22;1116;51.502;7.414;2022-07-22T05:12:52;16.60;99.90
2543;DHT22;1116;51.502;7.414;2022-07-22T05:15:32;16.60;99.90
2543;DHT22;1116;51.502;7.414;2022-07-22T05:18:11;16.80;99.90
2543;DHT22;1116;51.502;7.414;2022-07-22T05:24:13;16.80;99.90
2543;DHT22;1116;51.502;7.414;2022-07-22T05:27:00;16.60;99.90
2543;DHT22;1116;51.502;7.414;2022-07-22T05:29:56;16.60;99.90
2543;DHT22;1116;51.502;7.414;2022-07-22T05:33:02;16.60;99.90
2543;DHT22;1116;51.502;7.414;2022-07-22T05:35:45;16.50;99.90
2543;DHT22;1116;51.502;7.414;2022-07-22T05:38:27;16.40;99.90
2543;DHT22;1116;51.502;7.414;2022-07-22T05:41:16;16.40;99.90
2543;DHT22;1116;51.502;7.414;2022-07-22T05:44:16;16.10;99.90
2543;DHT22;1116;51.502;7.414;2022-07-22T05:47:01;16.40;99.90
2543;DHT22;1116;51.502;7.414;2022-07-22T05:49:55;16.90;99.90
2543;DHT22;1116;51.502;7.414;2022-07-22T05:52:48;16.80;99.90
2543;DHT22;1116;51.502;7.414;2022-07-22T05:55:30;16.30;99.90
2543;DHT22;1116;51.502;7.414;2022-07-22T05:58:08;16.00;99.90
2543;DHT22;1116;51.502;7.414;2022-07-22T06:00:40;16.50;99.90
2543;DHT22;1116;51.502;7.414;2022-07-22T06:03:16;16.20;99.90
2543;DHT22;1116;51.502;7.414;2022-07-22T06:05:59;16.40;99.90
2543;DHT22;1116;51.502;7.414;2022-07-22T06:08:39;16.80;99.90
2543;DHT22;1116;51.502;7.414;2022-07-22T06:11:24;17.30;99.90
2543;DHT22;1116;51.502;7.414;2022-07-22T06:13:59;16.50;99.90
2543;DHT22;1116;51.502;7.414;2022-07-22T06:16:35;16.40;99.90
2543;DHT22;1116;51.502;7.414;2022-07-22T06:19:50;16.30;99.90
2543;DHT22;1116;51.502;7.414;2022-07-22T06:22:30;16.80;99.90
2543;DHT22;1116;51.502;7.414;2022-07-22T06:25:02;17.00;99.90
2543;DHT22;1116;51.502;7.414;2022-07-22T06:27:52;16.90;99.90
2543;DHT22;1116;51.502;7.414;2022-07-22T06:30:26;17.00;99.90
2543;DHT22;1116;51.502;7.414;2022-07-22T06:33:06;17.30;99.90
2543;DHT22;1116;51.502;7.414;2022-07-22T06:35:53;17.30;99.90
2543;DHT22;1116;51.502;7.414;2022-07-22T06:38:26;17.40;99.90
2543;DHT22;1116;51.502;7.414;2022-07-22T06:41:31;17.00;99.90
2543;DHT22;1116;51.502;7.414;2022-07-22T06:44:14;17.00;99.90
2543;DHT22;1116;51.502;7.414;2022-07-22T06:46:50;17.00;99.90
2543;DHT22;1116;51.502;7.414;2022-07-22T06:49:38;17.20;99.90
2543;DHT22;1116;51.502;7.414;2022-07-22T06:52:17;16.90;99.90
2543;DHT22;1116;51.502;7.414;2022-07-22T06:55:28;17.20;99.90
2543;DHT22;1116;51.502;7.414;2022-07-22T06:58:20;17.30;99.90
2543;DHT22;1116;51.502;7.414;2022-07-22T07:00:52;17.40;99.90
2543;DHT22;1116;51.502;7.414;2022-07-22T07:03:31;17.20;99.90
2543;DHT22;1116;51.502;7.414;2022-07-22T07:06:11;17.40;99.90
2543;DHT22;1116;51.502;7.414;2022-07-22T07:09:12;17.40;99.90
2543;DHT22;1116;51.502;7.414;2022-07-22T07:11:48;17.60;99.90
2543;DHT22;1116;51.502;7.414;2022-07-22T07:14:38;17.30;99.90
2543;DHT22;1116;51.502;7.414;2022-07-22T07:18:07;17.30;99.90
2543;DHT22;1116;51.502;7.414;2022-07-22T07:21:00;17.30;99.90
2543;DHT22;1116;51.502;7.414;2022-07-22T07:23:54;16.80;99.90
2543;DHT22;1116;51.502;7.414;2022-07-22T07:26:34;17.70;99.90
2543;DHT22;1116;51.502;7.414;2022-07-22T07:29:18;17.80;99.90
2543;DHT22;1116;51.502;7.414;2022-07-22T07:32:02;17.40;99.90
2543;DHT22;1116;51.502;7.414;2022-07-22T07:34:38;17.50;99.90
2543;DHT22;1116;51.502;7.414;2022-07-22T07:37:25;17.60;99.90
2543;DHT22;1116;51.502;7.414;2022-07-22T07:40:04;17.80;99.90
2543;DHT22;1116;51.502;7.414;2022-07-22T07:42:49;18.50;99.90
2543;DHT22;1116;51.502;7.414;2022-07-22T07:45:41;18.00;99.90
2543;DHT22;1116;51.502;7.414;2022-07-22T07:51:38;17.90;99.90
2543;DHT22;1116;51.502;7.414;2022-07-22T07:54:32;17.90;99.90
2543;DHT22;1116;51.502;7.414;2022-07-22T07:57:26;17.80;99.90
2543;DHT22;1116;51.502;7.414;2022-07-22T07:59:59;18.10;99.90
2543;DHT22;1116;51.502;7.414;2022-07-22T08:02:31;18.60;99.90
2543;DHT22;1116;51.502;7.414;2022-07-22T08:05:16;18.60;99.90
2543;DHT22;1116;51.502;7.414;2022-07-22T08:08:10;18.40;99.90
2543;DHT22;1116;51.502;7.414;2022-07-22T08:10:48;18.30;99.90
2543;DHT22;1116;51.502;7.414;2022-07-22T08:44:47;18.10;45.00
2543;DHT22;1116;51.502;7.414;2022-07-22T08:47:38;18.10;50.60
2543;DHT22;1116;51.502;7.414;2022-07-22T08:50:36;18.20;51.20
2543;DHT22;1116;51.502;7.414;2022-07-22T08:53:29;17.80;49.20
2543;DHT22;1116;51.502;7.414;2022-07-22T08:56:14;18.00;45.10
2543;DHT22;1116;51.502;7.414;2022-07-22T08:59:44;18.70;45.80
2543;DHT22;1116;51.502;7.414;2022-07-22T09:03:52;18.60;38.70
2543;DHT22;1116;51.502;7.414;2022-07-22T09:06:35;18.60;37.30
2543;DHT22;1116;51.502;7.414;2022-07-22T09:09:45;18.80;38.00
2543;DHT22;1116;51.502;7.414;2022-07-22T09:16:09;18.30;35.90
2543;DHT22;1116;51.502;7.414;2022-07-22T09:19:07;18.40;40.10
2543;DHT22;1116;51.502;7.414;2022-07-22T09:22:09;17.90;37.20
2543;DHT22;1116;51.502;7.414;2022-07-22T09:25:35;18.70;36.20
2543;DHT22;1116;51.502;7.414;2022-07-22T09:28:17;18.40;33.80
2543;DHT22;1116;51.502;7.414;2022-07-22T09:31:03;18.50;38.80
2543;DHT22;1116;51.502;7.414;2022-07-22T09:33:54;18.80;38.10
2543;DHT22;1116;51.502;7.414;2022-07-22T09:37:05;19.20;32.90
2543;DHT22;1116;51.502;7.414;2022-07-22T09:43:01;18.20;38.90
2543;DHT22;1116;51.502;7.414;2022-07-22T09:46:18;18.50;43.00
2543;DHT22;1116;51.502;7.414;2022-07-22T09:50:25;18.20;41.30
2543;DHT22;1116;51.502;7.414;2022-07-22T09:53:37;18.90;40.30
2543;DHT22;1116;51.502;7.414;2022-07-22T09:56:28;18.70;31.80
2543;DHT22;1116;51.502;7.414;2022-07-22T09:59:18;19.00;34.00
2543;DHT22;1116;51.502;7.414;2022-07-22T10:02:14;19.20;30.70
2543;DHT22;1116;51.502;7.414;2022-07-22T10:05:08;19.50;30.80
2543;DHT22;1116;51.502;7.414;2022-07-22T10:08:13;18.90;29.20
2543;DHT22;1116;51.502;7.414;2022-07-22T10:11:05;18.90;29.20
2543;DHT22;1116;51.502;7.414;2022-07-22T10:14:28;19.40;28.80
2543;DHT22;1116;51.502;7.414;2022-07-22T10:17:09;18.90;31.00
2543;DHT22;1116;51.502;7.414;2022-07-22T10:19:46;18.40;33.30
2543;DHT22;1116;51.502;7.414;2022-07-22T10:22:52;18.00;40.70
2543;DHT22;1116;51.502;7.414;2022-07-22T10:25:59;18.40;39.20
2543;DHT22;1116;51.502;7.414;2022-07-22T10:29:30;18.80;36.60
2543;DHT22;1116;51.502;7.414;2022-07-22T10:32:40;18.80;33.90
2543;DHT22;1116;51.502;7.414;2022-07-22T10:35:23;18.60;37.80
2543;DHT22;1116;51.502;7.414;2022-07-22T10:49:37;18.60;36.20
2543;DHT22;1116;51.502;7.414;2022-07-22T10:52:16;18.70;33.50
2543;DHT22;1116;51.502;7.414;2022-07-22T10:55:20;18.90;34.10
2543;DHT22;1116;51.502;7.414;2022-07-22T11:00:52;18.80;31.00
2543;DHT22;1116;51.502;7.414;2022-07-22T11:03:29;19.40;28.20
2543;DHT22;1116;51.502;7.414;2022-07-22T11:06:27;19.90;25.30
2543;DHT22;1116;51.502;7.414;2022-07-22T11:09:13;20.00;24.40
2543;DHT22;1116;51.502;7.414;2022-07-22T11:12:17;20.10;23.40
2543;DHT22;1116;51.502;7.414;2022-07-22T11:15:03;20.40;23.90
2543;DHT22;1116;51.502;7.414;2022-07-22T11:17:49;20.30;20.50
2543;DHT22;1116;51.502;7.414;2022-07-22T11:20:34;21.10;22.90
2543;DHT22;1116;51.502;7.414;2022-07-22T11:23:27;20.80;22.70
2543;DHT22;1116;51.502;7.414;2022-07-22T11:26:09;20.80;21.80
2543;DHT22;1116;51.502;7.414;2022-07-22T11:28:45;20.60;18.90
2543;DHT22;1116;51.502;7.414;2022-07-22T11:31:30;20.20;20.50
2543;DHT22;1116;51.502;7.414;2022-07-22T11:34:08;20.20;21.40
2543;DHT22;1116;51.502;7.414;2022-07-22T11:37:05;20.50;21.70
2543;DHT22;1116;51.502;7.414;2022-07-22T11:39:46;19.80;20.20
2543;DHT22;1116;51.502;7.414;2022-07-22T11:42:42;19.80;25.90
2543;DHT22;1116;51.502;7.414;2022-07-22T11:45:58;19.70;23.00
2543;DHT22;1116;51.502;7.414;2022-07-22T11:48:41;19.60;22.60
2543;DHT22;1116;51.502;7.414;2022-07-22T11:51:19;19.90;26.70
2543;DHT22;1116;51.502;7.414;2022-07-22T11:54:06;20.30;24.50
2543;DHT22;1116;51.502;7.414;2022-07-22T11:56:57;20.00;22.20
2543;DHT22;1116;51.502;7.414;2022-07-22T11:59:55;20.40;23.40
2543;DHT22;1116;51.502;7.414;2022-07-22T12:02:46;20.30;22.30
2543;DHT22;1116;51.502;7.414;2022-07-22T12:05:50;20.40;21.60
2543;DHT22;1116;51.502;7.414;2022-07-22T12:09:02;20.30;20.90
2543;DHT22;1116;51.502;7.414;2022-07-22T12:11:53;20.10;21.40
2543;DHT22;1116;51.502;7.414;2022-07-22T12:14:52;19.70;24.70
2543;DHT22;1116;51.502;7.414;2022-07-22T12:18:42;20.00;25.60
2543;DHT22;1116;51.502;7.414;2022-07-22T12:22:19;20.10;24.80
2543;DHT22;1116;51.502;7.414;2022-07-22T12:25:49;20.20;22.30
2543;DHT22;1116;51.502;7.414;2022-07-22T12:28:43;20.40;20.80
2543;DHT22;1116;51.502;7.414;2022-07-22T12:31:46;20.70;19.10
2543;DHT22;1116;51.502;7.414;2022-07-22T12:35:31;20.90;19.00
2543;DHT22;1116;51.502;7.414;2022-07-22T14:51:17;22.80;4.00
2543;DHT22;1116;51.502;7.414;2022-07-22T14:54:26;23.10;3.20
2543;DHT22;1116;51.502;7.414;2022-07-22T14:57:17;23.20;4.10
2543;DHT22;1116;51.502;7.414;2022-07-22T18:20:54;22.30;4.70
2543;DHT22;1116;51.502;7.414;2022-07-22T18:23:35;22.60;5.60
2543;DHT22;1116;51.502;7.414;2022-07-22T18:26:27;22.20;8.00
2543;DHT22;1116;51.502;7.414;2022-07-22T18:29:19;22.10;9.00
2543;DHT22;1116;51.502;7.414;2022-07-22T18:31:58;22.10;7.80
2543;DHT22;1116;51.502;7.414;2022-07-22T18:38:20;21.80;9.50
2543;DHT22;1116;51.502;7.414;2022-07-22T18:42:01;21.80;8.20
2543;DHT22;1116;51.502;7.414;2022-07-22T18:45:04;21.50;6.80
2543;DHT22;1116;51.502;7.414;2022-07-22T18:47:57;21.30;8.60
2543;DHT22;1116;51.502;7.414;2022-07-22T18:50:34;21.20;9.80
2543;DHT22;1116;51.502;7.414;2022-07-22T18:53:20;21.60;10.00
2543;DHT22;1116;51.502;7.414;2022-07-22T18:56:02;21.20;9.60
2543;DHT22;1116;51.502;7.414;2022-07-22T18:58:42;21.10;9.30
2543;DHT22;1116;51.502;7.414;2022-07-22T19:01:27;21.20;8.90
2543;DHT22;1116;51.502;7.414;2022-07-22T19:04:17;21.60;11.60
2543;DHT22;1116;51.502;7.414;2022-07-22T19:07:15;21.30;10.80
2543;DHT22;1116;51.502;7.414;2022-07-22T19:10:11;21.30;10.00
2543;DHT22;1116;51.502;7.414;2022-07-22T19:12:44;21.40;10.80
2543;DHT22;1116;51.502;7.414;2022-07-22T19:16:04;21.10;12.40
2543;DHT22;1116;51.502;7.414;2022-07-22T19:19:03;21.10;13.10
2543;DHT22;1116;51.502;7.414;2022-07-22T19:22:17;21.10;12.20
2543;DHT22;1116;51.502;7.414;2022-07-22T19:24:54;20.90;13.00
2543;DHT22;1116;51.502;7.414;2022-07-22T19:27:39;21.10;13.90
2543;DHT22;1116;51.502;7.414;2022-07-22T19:30:23;21.20;14.70
2543;DHT22;1116;51.502;7.414;2022-07-22T19:33:20;21.00;15.60
2543;DHT22;1116;51.502;7.414;2022-07-22T19:36:23;21.10;15.40
2543;DHT22;1116;51.502;7.414;2022-07-22T19:39:08;21.20;14.60
2543;DHT22;1116;51.502;7.414;2022-07-22T19:42:09;21.10;15.20
2543;DHT22;1116;51.502;7.414;2022-07-22T19:44:59;20.80;16.00
2543;DHT22;1116;51.502;7.414;2022-07-22T19:50:55;20.70;16.70
2543;DHT22;1116;51.502;7.414;2022-07-22T19:57:32;20.50;16.10
2543;DHT22;1116;51.502;7.414;2022-07-22T20:00:57;20.50;19.10
2543;DHT22;1116;51.502;7.414;2022-07-22T20:03:51;20.40;19.50
2543;DHT22;1116;51.502;7.414;2022-07-22T20:06:55;20.30;20.90
2543;DHT22;1116;51.502;7.414;2022-07-22T21:47:04;19.20;36.90
2543;DHT22;1116;51.502;7.414;2022-07-22T21:52:38;19.20;38.30
2543;DHT22;1116;51.502;7.414;2022-07-22T21:55:11;19.20;39.90
2543;DHT22;1116;51.502;7.414;2022-07-22T21:58:02;19.20;39.60
